ATN3347 KCVG-KAUS
Flight info
| Callsign | ATN3347 |
|---|---|
| Flight time | N/A |
| Altitude | 36000 |
| Route | CHCLL6 BUSYY DCT PXV DCT LIT J131 TXK DCT BROBB DCT WINDU SEWZY6 |
| Aircraft | B763/H-1111/L |
Departure
| Time | 2026-04-30 22:05 |
|---|---|
| Airport | Cincinnati Northern Kentucky International Airport (KCVG) |
Arrival
| Time | N/A |
|---|---|
| Airport | Austin Bergstrom International Airport (KAUS) |
| Time | Latitude | Longitude | Altitude | Speed | Heading |
|---|---|---|---|---|---|
| 2026-04-30 21:36 | 39.03021 | -84.66566 | 865 ft | 0 kts | 271° |
| 2026-04-30 21:50 | 39.03021 | -84.66562 | 865 ft | 2 kts | 271° |
| 2026-04-30 21:50 | 39.03021 | -84.66538 | 860 ft | 3 kts | 269° |
| 2026-04-30 21:50 | 39.03021 | -84.66512 | 857 ft | 2 kts | 270° |
| 2026-04-30 21:50 | 39.03021 | -84.66492 | 866 ft | 3 kts | 279° |
| 2026-04-30 21:51 | 39.03015 | -84.66473 | 867 ft | 3 kts | 311° |
| 2026-04-30 21:51 | 39.03005 | -84.66464 | 867 ft | 3 kts | 351° |
| 2026-04-30 21:51 | 39.02985 | -84.66464 | 868 ft | 3 kts | 2° |
| 2026-04-30 21:51 | 39.02975 | -84.66464 | 868 ft | 0 kts | 360° |
| 2026-04-30 21:55 | 39.02976 | -84.66464 | 868 ft | 0 kts | 360° |
| 2026-04-30 21:55 | 39.02992 | -84.66464 | 868 ft | 4 kts | 360° |
| 2026-04-30 21:55 | 39.03034 | -84.66464 | 867 ft | 8 kts | 360° |
| 2026-04-30 21:55 | 39.03104 | -84.66465 | 857 ft | 12 kts | 360° |
| 2026-04-30 21:56 | 39.03198 | -84.66465 | 856 ft | 15 kts | 360° |
| 2026-04-30 21:56 | 39.03311 | -84.66463 | 857 ft | 17 kts | 2° |
| 2026-04-30 21:56 | 39.03433 | -84.66462 | 859 ft | 17 kts | 357° |
| 2026-04-30 21:56 | 39.03473 | -84.66443 | 862 ft | 3 kts | 51° |
| 2026-04-30 21:57 | 39.03489 | -84.66409 | 867 ft | 5 kts | 69° |
| 2026-04-30 21:57 | 39.03492 | -84.66340 | 868 ft | 11 kts | 89° |
| 2026-04-30 21:57 | 39.03534 | -84.66266 | 871 ft | 11 kts | 14° |
| 2026-04-30 21:57 | 39.03567 | -84.66248 | 872 ft | 3 kts | 52° |
| 2026-04-30 21:58 | 39.03580 | -84.66216 | 874 ft | 5 kts | 69° |
| 2026-04-30 21:58 | 39.03584 | -84.66190 | 875 ft | 6 kts | 90° |
| 2026-04-30 21:58 | 39.03582 | -84.66103 | 877 ft | 11 kts | 91° |
| 2026-04-30 21:58 | 39.03580 | -84.66005 | 880 ft | 11 kts | 91° |
| 2026-04-30 21:59 | 39.03578 | -84.65905 | 883 ft | 11 kts | 91° |
| 2026-04-30 21:59 | 39.03577 | -84.65801 | 886 ft | 12 kts | 91° |
| 2026-04-30 21:59 | 39.03576 | -84.65694 | 890 ft | 12 kts | 90° |
| 2026-04-30 22:00 | 39.03575 | -84.65471 | 897 ft | 13 kts | 90° |
| 2026-04-30 22:00 | 39.03576 | -84.65231 | 903 ft | 14 kts | 89° |
| 2026-04-30 22:00 | 39.03577 | -84.65103 | 906 ft | 14 kts | 94° |
| 2026-04-30 22:01 | 39.03607 | -84.65013 | 909 ft | 10 kts | 27° |
| 2026-04-30 22:01 | 39.03686 | -84.64998 | 907 ft | 13 kts | 4° |
| 2026-04-30 22:01 | 39.03786 | -84.64988 | 907 ft | 16 kts | 4° |
| 2026-04-30 22:01 | 39.03904 | -84.64986 | 906 ft | 18 kts | 356° |
| 2026-04-30 22:02 | 39.04040 | -84.64995 | 905 ft | 16 kts | 1° |
| 2026-04-30 22:02 | 39.04155 | -84.64991 | 904 ft | 16 kts | 1° |
| 2026-04-30 22:02 | 39.04276 | -84.64988 | 902 ft | 18 kts | 0° |
| 2026-04-30 22:02 | 39.04391 | -84.64989 | 900 ft | 13 kts | 359° |
| 2026-04-30 22:03 | 39.04451 | -84.65031 | 898 ft | 11 kts | 298° |
| 2026-04-30 22:03 | 39.04460 | -84.65149 | 894 ft | 16 kts | 269° |
| 2026-04-30 22:03 | 39.04474 | -84.65268 | 893 ft | 10 kts | 309° |
| 2026-04-30 22:03 | 39.04531 | -84.65296 | 892 ft | 10 kts | 354° |
| 2026-04-30 22:04 | 39.04595 | -84.65307 | 892 ft | 8 kts | 335° |
| 2026-04-30 22:04 | 39.04635 | -84.65360 | 892 ft | 4 kts | 289° |
| 2026-04-30 22:04 | 39.04629 | -84.65606 | 889 ft | 58 kts | 271° |
| 2026-04-30 22:05 | 39.04633 | -84.66455 | 887 ft | 129 kts | 270° |
| 2026-04-30 22:05 | 39.04642 | -84.67882 | 999 ft | 180 kts | 274° |
| 2026-04-30 22:05 | 39.04666 | -84.69575 | 1719 ft | 197 kts | 274° |
| 2026-04-30 22:05 | 39.04693 | -84.71427 | 2415 ft | 217 kts | 272° |
| 2026-04-30 22:06 | 39.04694 | -84.73419 | 3211 ft | 229 kts | 273° |
| 2026-04-30 22:06 | 39.04818 | -84.77979 | 4016 ft | 286 kts | 274° |
| 2026-04-30 22:06 | 39.04617 | -84.80646 | 4315 ft | 317 kts | 256° |
| 2026-04-30 22:07 | 39.03550 | -84.83302 | 4604 ft | 353 kts | 233° |
| 2026-04-30 22:07 | 39.01644 | -84.85475 | 4909 ft | 383 kts | 213° |
| 2026-04-30 22:07 | 38.99380 | -84.86708 | 5176 ft | 406 kts | 196° |
| 2026-04-30 22:07 | 38.96515 | -84.87118 | 5476 ft | 425 kts | 181° |
| 2026-04-30 22:08 | 38.93674 | -84.87081 | 5752 ft | 385 kts | 179° |
| 2026-04-30 22:08 | 38.91089 | -84.86986 | 6019 ft | 367 kts | 180° |
| 2026-04-30 22:08 | 38.88507 | -84.87107 | 6301 ft | 375 kts | 185° |
| 2026-04-30 22:08 | 38.85916 | -84.87337 | 6586 ft | 380 kts | 184° |
| 2026-04-30 22:09 | 38.83272 | -84.87567 | 6861 ft | 382 kts | 187° |
| 2026-04-30 22:09 | 38.80621 | -84.87952 | 7123 ft | 385 kts | 189° |
| 2026-04-30 22:09 | 38.77957 | -84.88455 | 7390 ft | 386 kts | 193° |
| 2026-04-30 22:09 | 38.75363 | -84.89293 | 7670 ft | 385 kts | 196° |
| 2026-04-30 22:10 | 38.72754 | -84.90122 | 7963 ft | 388 kts | 195° |
| 2026-04-30 22:10 | 38.70123 | -84.90942 | 8260 ft | 390 kts | 196° |
| 2026-04-30 22:10 | 38.67474 | -84.91774 | 8522 ft | 392 kts | 196° |
| 2026-04-30 22:10 | 38.64819 | -84.92606 | 8819 ft | 393 kts | 196° |
| 2026-04-30 22:11 | 38.59469 | -84.94283 | 9408 ft | 399 kts | 197° |
| 2026-04-30 22:11 | 38.56803 | -84.95114 | 9702 ft | 400 kts | 197° |
| 2026-04-30 22:11 | 38.54094 | -84.95964 | 9966 ft | 401 kts | 197° |
| 2026-04-30 22:12 | 38.51420 | -84.96938 | 10217 ft | 396 kts | 205° |
| 2026-04-30 22:12 | 38.48934 | -84.98437 | 10254 ft | 395 kts | 208° |
| 2026-04-30 22:12 | 38.46509 | -85.00096 | 10818 ft | 395 kts | 213° |
| 2026-04-30 22:12 | 38.44095 | -85.01793 | 11067 ft | 397 kts | 214° |
| 2026-04-30 22:13 | 38.41673 | -85.03527 | 11333 ft | 399 kts | 214° |
| 2026-04-30 22:13 | 38.40068 | -85.04687 | 11512 ft | 400 kts | 214° |
| 2026-04-30 22:13 | 38.36970 | -85.07171 | 11864 ft | 394 kts | 221° |
| 2026-04-30 22:13 | 38.34659 | -85.09082 | 12156 ft | 397 kts | 217° |
| 2026-04-30 22:14 | 38.32594 | -85.11332 | 12434 ft | 388 kts | 236° |
| 2026-04-30 22:14 | 38.31300 | -85.14284 | 12721 ft | 379 kts | 255° |
| 2026-04-30 22:14 | 38.30934 | -85.16490 | 12935 ft | 374 kts | 267° |
| 2026-04-30 22:14 | 38.30787 | -85.19784 | 13249 ft | 373 kts | 270° |
| 2026-04-30 22:15 | 38.30733 | -85.23054 | 13554 ft | 373 kts | 271° |
| 2026-04-30 22:15 | 38.30713 | -85.26354 | 13850 ft | 373 kts | 272° |
| 2026-04-30 22:15 | 38.30702 | -85.29654 | 14118 ft | 373 kts | 272° |
| 2026-04-30 22:15 | 38.30692 | -85.32954 | 14370 ft | 373 kts | 272° |
| 2026-04-30 22:16 | 38.30679 | -85.36250 | 14629 ft | 372 kts | 272° |
| 2026-04-30 22:16 | 38.30660 | -85.39546 | 14894 ft | 372 kts | 271° |
| 2026-04-30 22:17 | 38.30565 | -85.49399 | 15668 ft | 369 kts | 271° |
| 2026-04-30 22:17 | 38.30552 | -85.52663 | 15937 ft | 367 kts | 274° |
| 2026-04-30 22:17 | 38.30576 | -85.59147 | 16499 ft | 366 kts | 271° |
| 2026-04-30 22:18 | 38.30498 | -85.62342 | 16784 ft | 364 kts | 270° |
| 2026-04-30 22:18 | 38.30301 | -85.68776 | 17289 ft | 363 kts | 270° |
| 2026-04-30 22:19 | 38.30075 | -85.75185 | 17826 ft | 361 kts | 270° |
| 2026-04-30 22:19 | 38.29954 | -85.78375 | 18094 ft | 360 kts | 270° |
| 2026-04-30 22:19 | 38.29700 | -85.84732 | 18590 ft | 358 kts | 269° |
| 2026-04-30 22:20 | 38.29566 | -85.87890 | 18827 ft | 357 kts | 269° |
| 2026-04-30 22:20 | 38.29287 | -85.94168 | 19299 ft | 354 kts | 269° |
| 2026-04-30 22:20 | 38.29140 | -85.97299 | 19550 ft | 353 kts | 269° |
| 2026-04-30 22:21 | 38.28990 | -86.00411 | 19791 ft | 352 kts | 269° |
| 2026-04-30 22:21 | 38.28835 | -86.03512 | 20047 ft | 350 kts | 269° |
| 2026-04-30 22:21 | 38.28679 | -86.06559 | 20299 ft | 349 kts | 269° |
| 2026-04-30 22:21 | 38.28516 | -86.09643 | 20557 ft | 348 kts | 269° |
| 2026-04-30 22:22 | 38.28350 | -86.12709 | 20806 ft | 347 kts | 269° |
| 2026-04-30 22:22 | 38.28180 | -86.15762 | 21063 ft | 345 kts | 269° |
| 2026-04-30 22:22 | 38.28006 | -86.18803 | 21323 ft | 344 kts | 268° |
| 2026-04-30 22:22 | 38.27828 | -86.21832 | 21579 ft | 342 kts | 268° |
| 2026-04-30 22:23 | 38.27647 | -86.24846 | 21838 ft | 341 kts | 268° |
| 2026-04-30 22:23 | 38.27462 | -86.27855 | 22104 ft | 340 kts | 268° |
| 2026-04-30 22:23 | 38.27274 | -86.30845 | 22355 ft | 338 kts | 268° |
| 2026-04-30 22:23 | 38.27082 | -86.33821 | 22611 ft | 337 kts | 268° |
| 2026-04-30 22:24 | 38.26639 | -86.36748 | 22889 ft | 338 kts | 258° |
| 2026-04-30 22:24 | 38.25898 | -86.39596 | 23168 ft | 339 kts | 255° |
| 2026-04-30 22:24 | 38.25014 | -86.42374 | 23441 ft | 339 kts | 252° |
| 2026-04-30 22:24 | 38.24029 | -86.45096 | 23704 ft | 339 kts | 250° |
| 2026-04-30 22:25 | 38.22965 | -86.47764 | 23938 ft | 338 kts | 249° |
| 2026-04-30 22:25 | 38.21855 | -86.50351 | 24180 ft | 337 kts | 247° |
| 2026-04-30 22:25 | 38.20691 | -86.52939 | 24403 ft | 336 kts | 247° |
| 2026-04-30 22:25 | 38.19518 | -86.55497 | 24635 ft | 334 kts | 247° |
| 2026-04-30 22:26 | 38.17175 | -86.60560 | 25106 ft | 330 kts | 246° |
| 2026-04-30 22:26 | 38.15982 | -86.63043 | 25349 ft | 330 kts | 244° |
| 2026-04-30 22:26 | 38.14655 | -86.65420 | 25600 ft | 330 kts | 242° |
| 2026-04-30 22:27 | 38.13308 | -86.67764 | 25800 ft | 327 kts | 243° |
| 2026-04-30 22:27 | 38.11997 | -86.70109 | 26046 ft | 324 kts | 243° |
| 2026-04-30 22:27 | 38.09429 | -86.74718 | 26540 ft | 319 kts | 243° |
| 2026-04-30 22:28 | 38.06873 | -86.79270 | 26977 ft | 316 kts | 244° |
| 2026-04-30 22:28 | 38.05597 | -86.81552 | 27082 ft | 317 kts | 244° |
| 2026-04-30 22:29 | 38.01753 | -86.88388 | 27479 ft | 318 kts | 244° |
| 2026-04-30 22:29 | 38.00467 | -86.90675 | 27609 ft | 318 kts | 244° |
| 2026-04-30 22:30 | 37.95322 | -86.99804 | 28084 ft | 318 kts | 244° |
| 2026-04-30 22:31 | 37.91459 | -87.06642 | 28358 ft | 319 kts | 244° |
| 2026-04-30 22:32 | 37.87572 | -87.13507 | 28618 ft | 320 kts | 244° |
| 2026-04-30 22:32 | 37.84974 | -87.18089 | 28789 ft | 320 kts | 244° |
| 2026-04-30 22:33 | 37.81068 | -87.24966 | 29082 ft | 321 kts | 244° |
| 2026-04-30 22:33 | 37.78478 | -87.29517 | 29227 ft | 321 kts | 244° |
| 2026-04-30 22:34 | 37.74557 | -87.36395 | 29443 ft | 322 kts | 244° |
| 2026-04-30 22:35 | 37.71940 | -87.40978 | 29560 ft | 322 kts | 245° |
| 2026-04-30 22:36 | 37.66688 | -87.50158 | 29720 ft | 323 kts | 245° |
| 2026-04-30 22:36 | 37.65370 | -87.52455 | 29796 ft | 323 kts | 245° |
| 2026-04-30 22:37 | 37.61406 | -87.59368 | 29683 ft | 331 kts | 245° |
| 2026-04-30 22:37 | 37.60043 | -87.61757 | 28957 ft | 349 kts | 244° |
| 2026-04-30 22:37 | 37.57053 | -87.66904 | 28442 ft | 361 kts | 243° |
| 2026-04-30 22:38 | 37.54170 | -87.71966 | 28579 ft | 359 kts | 237° |
| 2026-04-30 22:38 | 37.51247 | -87.76956 | 29053 ft | 347 kts | 243° |
| 2026-04-30 22:39 | 37.49857 | -87.79397 | 29359 ft | 341 kts | 243° |
| 2026-04-30 22:39 | 37.45759 | -87.86478 | 30090 ft | 327 kts | 244° |
| 2026-04-30 22:40 | 37.41780 | -87.93350 | 30285 ft | 324 kts | 244° |
| 2026-04-30 22:41 | 37.37806 | -88.00182 | 30396 ft | 324 kts | 244° |
| 2026-04-30 22:41 | 37.35127 | -88.04785 | 30459 ft | 325 kts | 244° |
| 2026-04-30 22:42 | 37.29794 | -88.13928 | 30580 ft | 325 kts | 244° |
| 2026-04-30 22:43 | 37.27113 | -88.18514 | 30632 ft | 325 kts | 244° |
| 2026-04-30 22:44 | 37.21751 | -88.27667 | 30750 ft | 323 kts | 244° |
| 2026-04-30 22:45 | 37.16503 | -88.36605 | 31041 ft | 318 kts | 244° |
| 2026-04-30 22:45 | 37.13879 | -88.41064 | 31111 ft | 317 kts | 244° |
| 2026-04-30 22:47 | 37.06022 | -88.54380 | 31268 ft | 316 kts | 244° |
| 2026-04-30 22:48 | 37.00814 | -88.63178 | 31386 ft | 314 kts | 244° |
| 2026-04-30 22:49 | 36.93018 | -88.76305 | 31499 ft | 312 kts | 244° |
| 2026-04-30 22:50 | 36.87845 | -88.84987 | 31641 ft | 310 kts | 244° |
| 2026-04-30 22:51 | 36.85269 | -88.89302 | 31686 ft | 309 kts | 244° |
| 2026-04-30 22:52 | 36.81433 | -88.95718 | 31776 ft | 308 kts | 244° |
| 2026-04-30 22:53 | 36.76312 | -89.04263 | 31898 ft | 306 kts | 244° |
| 2026-04-30 22:53 | 36.72507 | -89.10598 | 31937 ft | 305 kts | 244° |